Time;durP1;ratioP1;P1;durP2;ratioP2;P2;SDS_P1;SDS_P2;PMS_P1;PMS_P2;Temp;Humidity;BMP_temperature;BMP_pressure;BME280_temperature;BME280_humidity;BME280_pressure;Samples;Min_cycle;Max_cycle;Signal;HPM_P1;HPM_P2
2023/05/01 00:00:52;;;;;;;6.70;5.35;;;10.90;99.90;;;;;;5040092;28;20099;-57
2023/05/01 00:03:18;;;;;;;7.35;5.25;;;10.90;99.90;;;;;;5049625;28;20132;-57
2023/05/01 00:05:47;;;;;;;9.38;5.78;;;10.90;99.90;;;;;;5060066;28;20033;-57
2023/05/01 00:08:13;;;;;;;8.57;5.18;;;10.80;99.90;;;;;;5059587;28;20056;-57
2023/05/01 00:10:38;;;;;;;9.23;5.45;;;10.80;99.90;;;;;;5046021;28;20038;-57
2023/05/01 00:13:05;;;;;;;10.70;5.20;;;10.80;99.90;;;;;;5024020;28;20065;-56
2023/05/01 00:15:32;;;;;;;12.30;5.22;;;10.80;99.90;;;;;;5019797;28;20038;-57
2023/05/01 00:17:58;;;;;;;9.88;5.53;;;10.80;99.90;;;;;;5002566;28;20046;-57
2023/05/01 00:20:30;;;;;;;12.70;5.90;;;10.70;99.90;;;;;;5019533;28;20030;-57
2023/05/01 00:22:56;;;;;;;13.32;5.72;;;10.70;99.90;;;;;;5020176;28;20045;-57
2023/05/01 00:25:22;;;;;;;8.70;5.20;;;10.60;99.90;;;;;;5036496;28;20072;-57
2023/05/01 00:27:48;;;;;;;7.57;5.22;;;10.60;99.90;;;;;;5036666;28;20485;-57
2023/05/01 00:30:14;;;;;;;13.05;5.60;;;10.60;99.90;;;;;;5023491;28;20033;-57
2023/05/01 00:32:40;;;;;;;9.75;5.38;;;10.60;99.90;;;;;;5030653;28;20069;-57
2023/05/01 00:35:06;;;;;;;8.52;5.47;;;10.60;99.90;;;;;;5037362;28;20057;-56
2023/05/01 00:37:31;;;;;;;11.63;5.93;;;10.60;99.90;;;;;;5037526;28;20034;-56
2023/05/01 00:39:57;;;;;;;9.55;5.38;;;11.10;99.90;;;;;;5033025;28;20030;-56
2023/05/01 00:42:23;;;;;;;13.02;5.65;;;10.50;99.90;;;;;;5018783;28;20044;-56
2023/05/01 00:44:48;;;;;;;11.30;5.78;;;10.50;99.90;;;;;;5019532;28;20069;-56
2023/05/01 00:47:14;;;;;;;9.68;5.97;;;10.40;99.90;;;;;;5036246;28;20575;-56
2023/05/01 00:49:45;;;;;;;7.90;5.93;;;10.40;99.90;;;;;;5039206;28;20604;-56
2023/05/01 00:52:10;;;;;;;9.35;5.38;;;10.40;99.90;;;;;;5035914;28;20074;-56
2023/05/01 00:54:36;;;;;;;9.60;6.18;;;10.30;99.90;;;;;;5043087;28;20041;-56
2023/05/01 00:57:02;;;;;;;12.07;6.07;;;10.20;99.90;;;;;;5039174;28;20044;-57
2023/05/01 00:59:28;;;;;;;7.80;5.57;;;10.20;99.90;;;;;;5033741;28;20102;-56
2023/05/01 01:01:54;;;;;;;12.60;5.55;;;10.10;99.90;;;;;;5053427;28;20041;-56
2023/05/01 01:04:21;;;;;;;9.98;5.88;;;10.10;99.90;;;;;;5030201;28;20041;-57
2023/05/01 01:07:05;;;;;;;11.60;6.10;;;10.10;99.90;;;;;;5046820;28;20045;-56
2023/05/01 01:09:41;;;;;;;10.70;5.90;;;10.10;99.90;;;;;;5036856;28;20044;-56
2023/05/01 01:12:10;;;;;;;;;;;10.00;99.90;;;;;;5058972;28;20456;-57
2023/05/01 01:14:46;;;;;;;11.38;5.95;;;10.00;99.90;;;;;;5031678;28;19935;-56
2023/05/01 01:17:37;;;;;;;11.80;6.60;;;10.00;99.90;;;;;;5026582;28;20041;-56
2023/05/01 01:20:19;;;;;;;8.52;5.93;;;9.90;99.90;;;;;;5032438;28;20049;-56
2023/05/01 01:23:15;;;;;;;11.20;6.30;;;9.90;99.90;;;;;;5034584;28;20046;-56
2023/05/01 01:25:59;;;;;;;10.17;6.53;;;9.90;99.90;;;;;;5028682;28;20498;-57
2023/05/01 01:29:00;;;;;;;10.75;6.38;;;9.90;99.90;;;;;;5034673;28;20029;-56
2023/05/01 01:31:36;;;;;;;11.85;6.68;;;9.80;99.90;;;;;;5030332;28;20068;-57
2023/05/01 01:34:26;;;;;;;10.05;5.97;;;9.80;99.90;;;;;;5034270;28;20071;-57
2023/05/01 01:37:00;;;;;;;9.88;5.80;;;9.70;99.90;;;;;;5030555;28;20108;-57
2023/05/01 01:39:36;;;;;;;11.60;6.05;;;9.70;99.90;;;;;;5020515;28;20056;-57
2023/05/01 01:42:08;;;;;;;8.45;5.97;;;9.70;99.90;;;;;;5032687;28;20054;-56
2023/05/01 01:44:41;;;;;;;12.35;5.57;;;9.70;99.90;;;;;;5016164;28;20045;-56
2023/05/01 01:47:10;;;;;;;11.55;6.05;;;9.60;99.90;;;;;;5013974;28;20155;-56
2023/05/01 01:49:41;;;;;;;12.70;6.10;;;9.60;99.90;;;;;;5014312;28;20164;-56
2023/05/01 01:52:09;;;;;;;10.93;6.35;;;9.60;99.90;;;;;;5014694;28;20053;-56
2023/05/01 01:54:39;;;;;;;9.73;6.40;;;9.50;99.90;;;;;;5014210;28;20069;-56
2023/05/01 01:57:07;;;;;;;9.90;6.20;;;9.60;99.90;;;;;;5016061;28;20729;-56
2023/05/01 01:59:34;;;;;;;9.68;6.22;;;9.50;99.90;;;;;;5005906;28;20043;-56
2023/05/01 02:02:04;;;;;;;12.73;6.20;;;9.50;99.90;;;;;;5017989;28;20029;-56
2023/05/01 02:04:31;;;;;;;9.27;6.50;;;9.50;99.90;;;;;;5029760;28;20388;-56
2023/05/01 02:06:58;;;;;;;11.25;5.95;;;9.40;99.90;;;;;;5032609;28;20050;-56
2023/05/01 02:09:26;;;;;;;12.15;6.05;;;9.40;99.90;;;;;;5028379;28;20048;-56
2023/05/01 02:11:54;;;;;;;10.63;5.53;;;9.40;99.90;;;;;;5017570;28;20042;-56
2023/05/01 02:14:21;;;;;;;9.52;6.25;;;9.30;99.90;;;;;;5035641;28;20073;-56
2023/05/01 02:16:47;;;;;;;12.02;5.88;;;9.30;99.90;;;;;;5032906;28;20293;-57
2023/05/01 02:19:15;;;;;;;10.23;5.95;;;9.30;99.90;;;;;;5034238;28;20045;-56
2023/05/01 02:21:43;;;;;;;9.70;5.60;;;9.20;99.90;;;;;;5032453;28;20146;-56
2023/05/01 02:24:11;;;;;;;9.10;5.97;;;9.20;99.90;;;;;;5030872;28;20161;-55
2023/05/01 02:26:46;;;;;;;9.32;6.00;;;9.10;99.90;;;;;;5032081;28;20072;-56
2023/05/01 02:29:12;;;;;;;12.55;5.70;;;9.10;99.90;;;;;;5039703;28;20413;-56
2023/05/01 02:31:38;;;;;;;9.38;5.80;;;9.10;99.90;;;;;;5028969;28;20038;-56
2023/05/01 02:34:04;;;;;;;12.27;6.10;;;9.10;99.90;;;;;;5030307;28;20503;-56
2023/05/01 02:36:30;;;;;;;10.45;6.28;;;9.00;99.90;;;;;;5038669;28;20529;-56
2023/05/01 02:38:56;;;;;;;12.13;6.03;;;9.00;99.90;;;;;;5061645;28;20037;-57
2023/05/01 02:41:26;;;;;;;8.55;5.93;;;8.90;99.90;;;;;;5053886;28;20109;-56
2023/05/01 02:44:03;;;;;;;9.98;6.07;;;9.00;99.90;;;;;;5041098;28;20322;-56
2023/05/01 02:46:35;;;;;;;9.55;5.63;;;8.90;99.90;;;;;;5021827;28;20037;-57
2023/05/01 02:49:02;;;;;;;10.40;5.43;;;8.90;99.90;;;;;;5033841;28;20048;-56
2023/05/01 02:51:30;;;;;;;11.32;5.80;;;9.20;99.90;;;;;;5007021;28;20042;-54
2023/05/01 02:53:58;;;;;;;13.77;5.80;;;8.80;99.90;;;;;;5052021;28;20043;-57
2023/05/01 02:56:26;;;;;;;11.52;5.78;;;8.70;99.90;;;;;;5061692;28;20094;-56
2023/05/01 02:58:52;;;;;;;11.75;5.90;;;8.80;99.90;;;;;;5060630;28;20462;-57
2023/05/01 03:01:19;;;;;;;11.93;5.50;;;8.80;99.90;;;;;;5046228;28;20056;-56
2023/05/01 03:03:45;;;;;;;14.32;6.18;;;8.70;99.90;;;;;;5020881;28;20087;-59
2023/05/01 03:06:13;;;;;;;7.35;5.75;;;8.70;99.90;;;;;;5021688;28;20046;-55
2023/05/01 03:08:39;;;;;;;10.52;5.50;;;8.70;99.90;;;;;;5021017;28;20498;-56
2023/05/01 03:11:07;;;;;;;11.32;5.70;;;8.50;99.90;;;;;;5039740;28;20042;-56
2023/05/01 03:13:34;;;;;;;8.68;5.63;;;8.60;99.90;;;;;;5038603;28;20081;-57
2023/05/01 03:16:00;;;;;;;10.27;5.78;;;8.60;99.90;;;;;;5040640;28;20103;-56
2023/05/01 03:18:26;;;;;;;11.23;5.70;;;8.50;99.90;;;;;;5038682;28;20053;-57
2023/05/01 03:20:58;;;;;;;12.38;6.22;;;8.50;99.90;;;;;;5019974;28;20056;-57
2023/05/01 03:23:24;;;;;;;10.80;5.78;;;8.50;99.90;;;;;;5021474;28;20443;-57
2023/05/01 03:25:50;;;;;;;8.85;5.85;;;8.50;99.90;;;;;;5020545;28;20041;-58
2023/05/01 03:28:16;;;;;;;10.25;5.60;;;8.40;99.90;;;;;;5021002;28;20046;-57
2023/05/01 03:30:43;;;;;;;12.70;6.35;;;8.40;99.90;;;;;;5045699;28;20063;-57
2023/05/01 03:33:08;;;;;;;8.85;5.25;;;8.40;99.90;;;;;;5060234;28;20052;-57
2023/05/01 03:35:34;;;;;;;8.50;5.80;;;8.40;99.90;;;;;;5050916;28;20712;-57
2023/05/01 03:38:00;;;;;;;11.57;5.85;;;8.30;99.90;;;;;;5010626;28;20056;-57
2023/05/01 03:40:25;;;;;;;9.25;5.32;;;8.30;99.90;;;;;;5035071;28;20037;-57
2023/05/01 03:42:51;;;;;;;15.65;6.18;;;8.20;99.90;;;;;;5042310;28;20052;-57
2023/05/01 03:45:17;;;;;;;8.63;5.60;;;8.20;99.90;;;;;;5035957;28;20042;-57
2023/05/01 03:47:42;;;;;;;12.38;5.93;;;8.20;99.90;;;;;;5060031;28;20397;-58
2023/05/01 03:50:08;;;;;;;10.57;6.00;;;8.10;99.90;;;;;;5049626;28;20048;-58
2023/05/01 03:52:34;;;;;;;10.00;6.15;;;8.10;99.90;;;;;;5037120;28;20119;-57
2023/05/01 03:55:00;;;;;;;11.02;6.38;;;8.00;99.90;;;;;;5026182;28;20045;-58
2023/05/01 03:57:26;;;;;;;9.82;6.22;;;8.00;99.90;;;;;;5022792;28;20045;-57
2023/05/01 03:59:53;;;;;;;16.35;6.95;;;8.00;99.90;;;;;;5039392;28;20041;-58
2023/05/01 04:02:19;;;;;;;10.38;5.93;;;8.00;99.90;;;;;;5023918;28;20049;-57
2023/05/01 04:04:45;;;;;;;11.45;6.60;;;7.90;99.90;;;;;;5036109;28;20047;-57
2023/05/01 04:07:12;;;;;;;9.05;6.20;;;7.90;99.90;;;;;;4995925;28;20049;-57
2023/05/01 04:09:38;;;;;;;12.27;6.75;;;7.90;99.90;;;;;;5036235;28;20523;-58
2023/05/01 04:12:03;;;;;;;9.73;5.88;;;7.60;99.90;;;;;;5035363;28;20064;-58
2023/05/01 04:14:29;;;;;;;14.77;6.80;;;7.90;99.90;;;;;;5036490;28;20045;-57
2023/05/01 04:16:56;;;;;;;10.38;6.10;;;7.80;99.90;;;;;;5039152;28;20098;-56
2023/05/01 04:19:22;;;;;;;11.05;6.20;;;7.80;99.90;;;;;;5022609;28;20136;-57
2023/05/01 04:21:48;;;;;;;11.20;6.65;;;7.80;99.90;;;;;;5037995;28;20072;-57
2023/05/01 04:24:15;;;;;;;11.30;6.10;;;7.90;99.90;;;;;;5038966;28;20038;-57
2023/05/01 04:26:41;;;;;;;10.40;6.32;;;7.80;99.90;;;;;;5033750;28;20045;-57
2023/05/01 04:29:07;;;;;;;14.68;6.50;;;7.90;99.90;;;;;;5001613;28;20041;-57
2023/05/01 04:31:33;;;;;;;12.82;6.47;;;7.80;99.90;;;;;;5019694;28;20041;-57
2023/05/01 04:33:59;;;;;;;8.00;6.00;;;7.80;99.90;;;;;;5019361;28;20034;-57
2023/05/01 04:36:25;;;;;;;15.65;7.07;;;7.90;99.90;;;;;;5019736;28;20046;-56
2023/05/01 04:38:51;;;;;;;10.90;6.32;;;7.80;99.90;;;;;;5033767;28;20106;-58
2023/05/01 04:41:17;;;;;;;11.75;6.65;;;7.90;99.90;;;;;;5039190;28;20084;-57
2023/05/01 04:43:42;;;;;;;12.80;6.65;;;7.90;99.90;;;;;;5034509;28;20049;-57
2023/05/01 04:46:08;;;;;;;13.55;6.63;;;7.90;99.90;;;;;;5032653;28;20073;-58
2023/05/01 04:48:34;;;;;;;13.70;6.78;;;7.90;99.90;;;;;;5046029;28;20110;-57
2023/05/01 04:51:02;;;;;;;13.95;6.53;;;7.90;99.90;;;;;;5036206;28;20465;-58
2023/05/01 04:53:28;;;;;;;12.65;6.45;;;7.90;99.90;;;;;;5020272;28;20073;-59
2023/05/01 04:55:54;;;;;;;9.73;6.43;;;7.90;99.90;;;;;;5020872;28;20516;-58
2023/05/01 04:58:20;;;;;;;10.82;6.80;;;7.90;99.90;;;;;;5028732;28;20088;-59
2023/05/01 05:00:45;;;;;;;7.72;6.30;;;7.90;99.90;;;;;;5031267;28;20057;-58
2023/05/01 05:03:11;;;;;;;11.70;6.07;;;8.00;99.90;;;;;;5023027;28;20041;-57
2023/05/01 05:05:37;;;;;;;11.10;6.10;;;8.00;99.90;;;;;;5015702;28;20049;-57
2023/05/01 05:08:03;;;;;;;12.10;6.93;;;8.10;99.90;;;;;;5018889;28;20069;-58
2023/05/01 05:10:28;;;;;;;10.98;7.10;;;8.10;99.90;;;;;;5019716;28;20080;-58
2023/05/01 05:12:54;;;;;;;13.10;7.20;;;8.10;99.90;;;;;;5023612;28;20504;-57
2023/05/01 05:15:20;;;;;;;13.10;6.50;;;8.20;99.90;;;;;;5016439;28;20053;-58
2023/05/01 05:17:46;;;;;;;12.05;6.97;;;8.20;99.90;;;;;;5025996;28;20121;-58
2023/05/01 05:20:11;;;;;;;11.65;6.45;;;8.30;99.90;;;;;;5038266;28;20041;-57
2023/05/01 05:22:37;;;;;;;11.68;6.32;;;8.30;99.90;;;;;;5034342;28;20122;-57
2023/05/01 05:25:05;;;;;;;12.25;6.75;;;8.40;99.90;;;;;;5037993;28;20056;-57
2023/05/01 05:27:35;;;;;;;16.05;7.20;;;8.40;99.90;;;;;;5021012;28;20901;-57
2023/05/01 05:30:01;;;;;;;14.82;7.05;;;8.40;99.90;;;;;;5018959;28;20037;-57
2023/05/01 05:32:28;;;;;;;13.07;6.35;;;8.50;99.90;;;;;;5023222;28;20038;-58
2023/05/01 05:34:53;;;;;;;14.57;6.88;;;8.60;99.90;;;;;;5031656;28;20041;-57
2023/05/01 05:37:19;;;;;;;12.48;5.82;;;8.70;99.90;;;;;;5035617;28;20034;-58
2023/05/01 05:39:45;;;;;;;11.85;7.15;;;8.80;99.90;;;;;;5026819;28;20070;-56
2023/05/01 05:42:10;;;;;;;13.75;6.82;;;8.90;99.90;;;;;;5012963;28;20038;-56
2023/05/01 05:44:37;;;;;;;13.68;6.75;;;8.90;99.90;;;;;;5021179;28;20058;-56
2023/05/01 05:47:03;;;;;;;10.02;5.85;;;9.00;99.90;;;;;;5001222;28;20058;-57
2023/05/01 05:49:29;;;;;;;13.13;6.60;;;9.10;99.90;;;;;;5038883;28;20056;-57
2023/05/01 05:51:55;;;;;;;14.68;6.45;;;9.20;99.90;;;;;;5041712;28;20055;-57
2023/05/01 05:54:20;;;;;;;14.23;6.65;;;9.20;99.90;;;;;;5041026;28;20132;-57
2023/05/01 05:56:46;;;;;;;12.38;7.07;;;9.30;99.90;;;;;;5041407;28;20045;-57
2023/05/01 05:59:11;;;;;;;13.30;6.63;;;9.40;99.90;;;;;;5024274;28;20056;-57
2023/05/01 06:01:39;;;;;;;11.35;6.80;;;9.50;99.90;;;;;;5036045;28;20073;-56
2023/05/01 06:04:05;;;;;;;9.82;6.32;;;9.60;99.90;;;;;;5052045;28;20060;-56
2023/05/01 06:06:31;;;;;;;9.38;6.72;;;9.60;99.90;;;;;;5062917;28;20045;-56
2023/05/01 06:08:57;;;;;;;10.32;6.80;;;9.70;99.90;;;;;;5044969;28;20038;-55
2023/05/01 06:11:23;;;;;;;12.32;6.57;;;9.80;99.90;;;;;;5036162;28;20052;-56
2023/05/01 06:13:48;;;;;;;11.98;6.72;;;9.80;99.90;;;;;;5028135;28;20076;-56
2023/05/01 06:16:14;;;;;;;11.02;6.40;;;9.90;99.90;;;;;;5038943;28;20083;-56
2023/05/01 06:18:40;;;;;;;9.07;5.55;;;10.00;99.90;;;;;;5040967;28;20072;-55
2023/05/01 06:21:06;;;;;;;11.13;6.30;;;10.00;99.90;;;;;;5040431;28;20450;-56
2023/05/01 06:23:32;;;;;;;11.73;6.65;;;10.10;99.90;;;;;;5042334;28;20057;-56
2023/05/01 06:25:59;;;;;;;13.45;6.15;;;10.10;99.90;;;;;;5038232;28;20041;-55
2023/05/01 06:28:24;;;;;;;11.05;5.72;;;10.20;99.90;;;;;;5043193;28;20077;-58
2023/05/01 06:30:50;;;;;;;10.60;5.68;;;10.30;99.90;;;;;;5036514;28;20034;-56
2023/05/01 06:33:16;;;;;;;10.88;5.80;;;10.40;99.90;;;;;;5014275;28;20037;-56
2023/05/01 06:35:41;;;;;;;13.77;5.78;;;10.40;99.90;;;;;;5037709;28;20048;-56
2023/05/01 06:38:07;;;;;;;12.18;6.30;;;10.60;99.90;;;;;;5032252;28;20049;-56
2023/05/01 06:40:34;;;;;;;8.73;5.65;;;10.60;99.90;;;;;;5045564;28;20033;-57
2023/05/01 06:43:03;;;;;;;9.93;5.47;;;10.70;99.90;;;;;;5046817;28;20053;-56
2023/05/01 06:45:29;;;;;;;9.40;5.45;;;10.70;99.90;;;;;;5047468;28;20038;-58
2023/05/01 06:47:54;;;;;;;11.52;5.60;;;10.70;99.90;;;;;;5041734;28;20086;-56
2023/05/01 06:50:20;;;;;;;14.75;5.88;;;10.80;99.90;;;;;;5040906;28;20068;-56
2023/05/01 06:52:46;;;;;;;14.55;5.60;;;10.80;99.90;;;;;;5023760;28;20071;-56
2023/05/01 06:55:11;;;;;;;9.40;5.50;;;10.80;99.90;;;;;;5030754;28;20098;-57
2023/05/01 06:57:38;;;;;;;9.18;5.82;;;10.80;99.90;;;;;;5036038;28;20041;-57
2023/05/01 07:00:05;;;;;;;11.75;5.90;;;10.80;99.90;;;;;;5050801;28;20101;-56
2023/05/01 07:02:31;;;;;;;8.75;5.45;;;10.80;99.90;;;;;;5041186;28;20049;-55
2023/05/01 07:04:56;;;;;;;9.25;5.00;;;10.80;99.90;;;;;;5041424;28;20064;-56
2023/05/01 07:07:23;;;;;;;12.23;6.10;;;10.80;99.90;;;;;;5040696;28;20048;-57
2023/05/01 07:09:48;;;;;;;9.38;5.85;;;10.80;99.90;;;;;;5039965;28;20498;-57
2023/05/01 07:12:14;;;;;;;15.43;6.10;;;10.80;99.90;;;;;;5039504;28;20041;-56
2023/05/01 07:14:40;;;;;;;9.70;5.70;;;10.80;99.90;;;;;;5040390;28;20041;-56
2023/05/01 07:17:08;;;;;;;12.10;5.95;;;10.90;99.90;;;;;;5036540;28;20550;-56
2023/05/01 07:19:34;;;;;;;8.20;5.35;;;11.00;99.90;;;;;;5038144;28;20068;-56
2023/05/01 07:21:59;;;;;;;10.98;4.97;;;11.20;99.90;;;;;;5036737;28;20073;-57
2023/05/01 07:24:25;;;;;;;10.48;5.20;;;11.50;99.90;;;;;;5038380;28;20650;-56
2023/05/01 07:26:51;;;;;;;9.65;5.63;;;11.70;99.90;;;;;;5020683;28;20107;-56
2023/05/01 07:29:17;;;;;;;8.43;5.72;;;12.00;99.90;;;;;;5037994;28;20091;-56
2023/05/01 07:31:43;;;;;;;8.20;5.15;;;12.30;99.90;;;;;;5036688;28;20431;-56
2023/05/01 07:34:09;;;;;;;6.40;4.75;;;12.60;99.90;;;;;;5019515;28;20045;-57
2023/05/01 07:36:34;;;;;;;10.27;5.20;;;12.80;99.90;;;;;;5002361;28;20052;-56
2023/05/01 07:39:00;;;;;;;12.60;5.78;;;13.00;99.90;;;;;;5019749;28;20058;-56
2023/05/01 07:41:26;;;;;;;8.75;5.57;;;13.20;99.90;;;;;;5020125;28;20056;-56
2023/05/01 07:43:51;;;;;;;9.50;5.60;;;13.50;99.90;;;;;;5004560;28;20041;-56
2023/05/01 07:46:17;;;;;;;11.95;5.05;;;13.70;99.90;;;;;;5039841;28;20049;-56
2023/05/01 07:48:43;;;;;;;10.25;5.45;;;14.00;99.90;;;;;;5040810;28;20069;-56
2023/05/01 07:51:08;;;;;;;11.57;5.75;;;14.00;99.90;;;;;;5040196;28;20040;-60
2023/05/01 07:53:34;;;;;;;10.35;5.53;;;14.00;99.90;;;;;;5022659;28;20042;-55
2023/05/01 07:56:07;;;;;;;11.00;5.53;;;14.10;99.90;;;;;;5022213;28;20124;-56
2023/05/01 07:58:34;;;;;;;8.48;5.35;;;14.10;99.90;;;;;;5037919;28;20038;-56
2023/05/01 08:01:00;;;;;;;9.38;5.43;;;14.10;99.90;;;;;;5039679;28;20110;-57
2023/05/01 08:03:29;;;;;;;10.57;5.57;;;14.10;99.90;;;;;;5039638;28;20037;-56
2023/05/01 08:05:56;;;;;;;10.18;5.75;;;14.20;99.90;;;;;;5040239;28;20041;-56
2023/05/01 08:08:22;;;;;;;9.57;5.35;;;14.40;99.90;;;;;;5039801;28;20065;-56
2023/05/01 08:10:48;;;;;;;9.48;5.18;;;14.40;99.90;;;;;;5038439;28;20053;-56
2023/05/01 08:13:14;;;;;;;12.40;5.70;;;14.40;99.90;;;;;;5038448;28;20045;-56
2023/05/01 08:15:41;;;;;;;10.57;5.72;;;14.50;99.90;;;;;;5038898;28;20046;-56
2023/05/01 08:18:08;;;;;;;10.90;5.60;;;14.50;99.90;;;;;;5040056;28;20037;-56
2023/05/01 08:20:37;;;;;;;12.50;5.53;;;14.60;99.90;;;;;;5021291;28;20045;-56
2023/05/01 08:23:02;;;;;;;10.93;5.20;;;14.70;99.90;;;;;;5038046;28;20498;-56
2023/05/01 08:25:30;;;;;;;8.90;5.00;;;14.70;99.90;;;;;;5038329;28;20132;-56
2023/05/01 08:27:56;;;;;;;13.38;5.60;;;14.70;99.90;;;;;;5040015;28;20420;-56
2023/05/01 08:30:22;;;;;;;9.60;4.80;;;14.80;99.90;;;;;;5039554;28;20065;-56
2023/05/01 08:32:52;;;;;;;;;;;14.90;99.90;;;;;;5060818;27;1259444;-57
2023/05/01 08:35:19;;;;;;;9.37;5.00;;;14.90;99.90;;;;;;5099430;28;19920;-57
2023/05/01 08:37:45;;;;;;;8.20;5.20;;;14.90;99.90;;;;;;5093968;28;20072;-57
2023/05/01 08:40:11;;;;;;;10.23;5.03;;;14.90;99.90;;;;;;5080131;28;20041;-58
2023/05/01 08:42:37;;;;;;;6.80;4.45;;;15.10;99.90;;;;;;5078532;28;20103;-57
2023/05/01 08:45:07;;;;;;;7.90;5.50;;;15.20;99.90;;;;;;5079658;28;20119;-57
2023/05/01 08:47:37;;;;;;;8.95;4.90;;;15.20;99.90;;;;;;5076952;28;20493;-57
2023/05/01 08:50:03;;;;;;;6.78;4.40;;;15.30;99.90;;;;;;5078707;28;20393;-57
2023/05/01 08:52:30;;;;;;;10.98;5.07;;;15.30;99.90;;;;;;5078611;28;20069;-56
2023/05/01 08:54:58;;;;;;;9.80;4.90;;;15.40;99.90;;;;;;5078966;28;20048;-56
2023/05/01 08:57:26;;;;;;;8.68;4.53;;;15.50;99.90;;;;;;5079838;28;20465;-57
2023/05/01 08:59:54;;;;;;;9.10;4.97;;;15.70;99.90;;;;;;5078136;28;20044;-57
2023/05/01 09:02:23;;;;;;;10.88;4.70;;;15.80;99.90;;;;;;5079064;28;20045;-57
2023/05/01 09:04:50;;;;;;;12.63;5.07;;;15.90;99.90;;;;;;5078079;28;20102;-57
2023/05/01 09:07:16;;;;;;;9.13;4.38;;;15.90;99.90;;;;;;5078840;28;20052;-57
2023/05/01 09:09:43;;;;;;;12.55;4.95;;;16.00;99.90;;;;;;5078868;28;20037;-56
2023/05/01 09:12:25;;;;;;;9.38;4.65;;;16.00;99.90;;;;;;5078549;28;20045;-57
2023/05/01 09:14:55;;;;;;;10.23;4.70;;;16.10;99.90;;;;;;5078831;28;20077;-57
2023/05/01 09:17:22;;;;;;;11.90;4.93;;;16.20;99.90;;;;;;5076527;28;20102;-56
2023/05/01 09:19:49;;;;;;;8.93;5.00;;;16.30;99.90;;;;;;5081639;28;20044;-56
2023/05/01 09:22:17;;;;;;;7.28;4.63;;;16.50;99.90;;;;;;5077661;28;20089;-57
2023/05/01 09:24:43;;;;;;;10.57;4.13;;;16.60;99.90;;;;;;5079499;28;20076;-57
2023/05/01 09:27:12;;;;;;;8.90;5.05;;;16.80;99.90;;;;;;5082748;28;20072;-57
2023/05/01 09:29:46;;;;;;;6.70;4.15;;;16.90;99.90;;;;;;5077372;28;20102;-58
2023/05/01 09:32:33;;;;;;;6.55;2.83;;;17.10;99.50;;;;;;5078641;28;20072;-57
2023/05/01 09:35:12;;;;;;;4.82;3.10;;;17.20;95.30;;;;;;5097964;28;20052;-57
2023/05/01 09:37:38;;;;;;;8.95;3.70;;;17.30;95.30;;;;;;5085405;28;20056;-57
2023/05/01 09:40:09;;;;;;;6.32;3.20;;;17.40;96.30;;;;;;5087390;28;20048;-57
2023/05/01 09:42:57;;;;;;;8.70;3.40;;;17.50;95.30;;;;;;5073399;28;20045;-57
2023/05/01 09:45:23;;;;;;;5.75;3.42;;;17.60;95.20;;;;;;5065276;28;20029;-57
2023/05/01 09:47:48;;;;;;;7.75;3.60;;;17.60;94.60;;;;;;5064353;28;20116;-57
2023/05/01 09:50:32;;;;;;;7.85;3.67;;;17.50;94.40;;;;;;5065729;28;20053;-58
2023/05/01 09:53:00;;;;;;;6.78;3.92;;;17.50;93.60;;;;;;5069702;28;20051;-58
2023/05/01 09:55:25;;;;;;;7.82;3.83;;;17.60;94.90;;;;;;5082907;28;20037;-58
2023/05/01 09:57:52;;;;;;;6.75;3.72;;;17.70;94.90;;;;;;5067462;28;20094;-58
2023/05/01 10:00:20;;;;;;;10.63;4.22;;;17.90;95.50;;;;;;5076865;28;20116;-58
2023/05/01 10:02:47;;;;;;;7.72;3.97;;;18.00;95.30;;;;;;5064630;28;20087;-57
2023/05/01 10:05:13;;;;;;;8.52;3.85;;;18.10;95.20;;;;;;5071666;28;20041;-58
2023/05/01 10:07:55;;;;;;;11.35;4.05;;;18.10;94.50;;;;;;5056568;28;20045;-58
2023/05/01 10:10:21;;;;;;;7.43;3.63;;;18.10;94.40;;;;;;5068748;28;20075;-58
2023/05/01 10:12:48;;;;;;;9.77;3.42;;;18.30;94.60;;;;;;5062886;28;20040;-58
2023/05/01 10:15:15;;;;;;;8.10;3.05;;;18.40;94.20;;;;;;5076811;28;20080;-58
2023/05/01 10:17:42;;;;;;;9.55;3.40;;;18.50;93.80;;;;;;5071199;28;20051;-59
2023/05/01 10:20:12;;;;;;;4.90;3.00;;;18.70;93.80;;;;;;5060832;28;20072;-59
2023/05/01 10:22:41;;;;;;;8.60;3.45;;;18.70;92.70;;;;;;5068909;28;20045;-59
2023/05/01 10:25:11;;;;;;;6.00;3.20;;;18.70;91.30;;;;;;5066881;28;20049;-62
2023/05/01 10:27:39;;;;;;;6.60;3.45;;;18.60;92.00;;;;;;5062771;28;20429;-59
2023/05/01 10:30:06;;;;;;;6.40;3.85;;;18.60;92.30;;;;;;5059438;28;21066;-59
2023/05/01 10:32:32;;;;;;;9.52;3.67;;;18.60;92.50;;;;;;5062815;28;20060;-58
2023/05/01 10:35:07;;;;;;;6.35;3.25;;;18.50;92.70;;;;;;5071056;28;20049;-58
2023/05/01 10:37:38;;;;;;;7.80;3.28;;;18.60;93.10;;;;;;5065776;28;20056;-59
2023/05/01 10:40:38;;;;;;;6.85;3.20;;;18.70;93.60;;;;;;5064823;28;20521;-58
2023/05/01 10:43:27;;;;;;;5.65;3.20;;;18.90;92.00;;;;;;5063342;28;20028;-59
2023/05/01 10:46:08;;;;;;;5.95;3.38;;;18.90;91.90;;;;;;5071974;28;20071;-59
2023/05/01 10:48:37;;;;;;;7.75;2.90;;;18.90;91.40;;;;;;5075324;28;20041;-58
2023/05/01 10:51:19;;;;;;;5.00;3.00;;;18.90;91.90;;;;;;5067201;28;20395;-58
2023/05/01 10:54:08;;;;;;;11.98;3.67;;;18.90;92.00;;;;;;5063980;28;20044;-58
2023/05/01 10:56:34;;;;;;;5.60;3.00;;;19.00;92.50;;;;;;5073444;28;20042;-59
2023/05/01 10:59:03;;;;;;;6.43;3.05;;;19.00;92.60;;;;;;5072103;28;20096;-59
2023/05/01 11:01:46;;;;;;;7.07;3.30;;;19.10;92.90;;;;;;5072882;28;20833;-59
2023/05/01 11:04:18;;;;;;;4.63;2.95;;;19.20;92.70;;;;;;5063280;28;20041;-58
2023/05/01 11:07:04;;;;;;;5.50;2.75;;;19.30;92.30;;;;;;5070677;28;20048;-59
2023/05/01 11:09:41;;;;;;;6.78;2.50;;;19.30;92.00;;;;;;5073080;28;20172;-59
2023/05/01 11:12:09;;;;;;;15.70;2.80;;;19.20;91.10;;;;;;5065878;28;20092;-59
2023/05/01 11:14:53;;;;;;;4.85;2.40;;;19.20;91.30;;;;;;5061710;28;20041;-59
2023/05/01 11:17:40;;;;;;;6.05;2.60;;;19.30;91.40;;;;;;5067689;28;20036;-58
2023/05/01 11:20:07;;;;;;;6.28;2.30;;;19.40;91.30;;;;;;5068942;28;20167;-59
2023/05/01 11:22:33;;;;;;;5.55;2.08;;;19.50;91.10;;;;;;5069005;28;20044;-59
2023/05/01 11:25:00;;;;;;;4.95;1.80;;;19.50;91.00;;;;;;5068889;28;20041;-59
2023/05/01 11:27:26;;;;;;;4.10;1.77;;;19.60;91.20;;;;;;5076855;28;20258;-59
2023/05/01 11:29:53;;;;;;;6.15;2.15;;;19.80;90.20;;;;;;5060958;28;20048;-58
2023/05/01 11:32:23;;;;;;;5.32;1.90;;;19.80;90.00;;;;;;5062529;28;20057;-59
2023/05/01 11:34:50;;;;;;;4.82;1.50;;;19.80;90.10;;;;;;5061098;28;20076;-58
2023/05/01 11:37:16;;;;;;;11.70;1.65;;;19.90;90.00;;;;;;5062573;28;20650;-58
2023/05/01 11:39:50;;;;;;;6.28;1.70;;;20.00;90.30;;;;;;5070390;28;20049;-58
2023/05/01 11:42:18;;;;;;;3.35;1.80;;;20.10;89.40;;;;;;5070712;28;20480;-58
2023/05/01 11:45:04;;;;;;;3.33;1.80;;;20.10;89.10;;;;;;5072141;28;20053;-58
2023/05/01 11:47:33;;;;;;;8.38;2.33;;;20.00;88.00;;;;;;5072490;28;20404;-57
2023/05/01 11:50:00;;;;;;;4.97;2.28;;;20.20;88.30;;;;;;5074971;28;20051;-58
2023/05/01 11:52:39;;;;;;;3.78;2.13;;;20.20;88.00;;;;;;5069729;28;20045;-58
2023/05/01 11:55:06;;;;;;;4.18;2.33;;;20.20;87.80;;;;;;5067125;28;20040;-58
2023/05/01 11:57:52;;;;;;;5.47;2.30;;;20.20;86.90;;;;;;5068290;28;20102;-58
2023/05/01 12:00:28;;;;;;;3.80;2.13;;;20.20;86.60;;;;;;5064077;28;20064;-59
2023/05/01 12:03:03;;;;;;;4.75;1.95;;;20.30;86.50;;;;;;5076855;28;20044;-58
2023/05/01 12:05:30;;;;;;;6.43;2.00;;;20.40;86.70;;;;;;5068562;28;20450;-58
2023/05/01 12:08:19;;;;;;;7.45;1.95;;;20.60;87.10;;;;;;5071248;28;20057;-59
2023/05/01 12:10:48;;;;;;;3.45;1.65;;;20.90;86.60;;;;;;5066957;28;20064;-58
2023/05/01 12:13:15;;;;;;;10.82;2.15;;;21.00;85.90;;;;;;5063668;28;20116;-58
2023/05/01 12:15:46;;;;;;;4.13;1.95;;;21.10;85.80;;;;;;5063740;28;20042;-58
2023/05/01 12:18:14;;;;;;;4.10;1.80;;;21.30;86.30;;;;;;5055904;28;20477;-58
2023/05/01 12:20:44;;;;;;;4.65;1.92;;;21.40;85.00;;;;;;5055655;28;20052;-59
2023/05/01 12:23:12;;;;;;;4.20;2.05;;;21.50;83.90;;;;;;5055097;28;20087;-58
2023/05/01 12:25:39;;;;;;;6.38;2.40;;;21.60;83.00;;;;;;5052888;28;20048;-58
2023/05/01 12:28:19;;;;;;;7.28;1.95;;;21.60;82.00;;;;;;5050259;28;20613;-58
2023/05/01 12:30:48;;;;;;;3.65;2.20;;;21.60;82.60;;;;;;5051717;28;20049;-57
2023/05/01 12:33:18;;;;;;;4.90;2.10;;;21.60;82.60;;;;;;5042364;28;20135;-58
2023/05/01 12:35:46;;;;;;;6.65;2.72;;;21.50;81.50;;;;;;5050157;28;20069;-57
2023/05/01 12:38:16;;;;;;;6.15;2.88;;;21.70;82.90;;;;;;5058127;28;20397;-58
2023/05/01 12:40:56;;;;;;;18.17;3.28;;;21.90;82.70;;;;;;5053131;28;20045;-58
2023/05/01 12:43:33;;;;;;;5.57;2.45;;;22.20;81.50;;;;;;5051116;28;20056;-58
2023/05/01 12:45:59;;;;;;;9.20;2.80;;;22.50;80.20;;;;;;5058613;28;20489;-58
2023/05/01 12:48:26;;;;;;;5.93;2.42;;;22.40;79.70;;;;;;5054793;28;20146;-58
2023/05/01 12:50:55;;;;;;;5.57;2.47;;;22.20;79.10;;;;;;5056842;28;20493;-58
2023/05/01 12:53:26;;;;;;;5.60;2.30;;;22.10;78.40;;;;;;5058025;28;20075;-58